Rose Lodge, Oregon
Current Conditions -  °F | °C
As of 7:35 PM on Saturday 22 Nov 2014 (Local Time) from KTMK Reporting Station
Scattered Clouds Scattered Clouds  
Wind Chill: 41°   Ceiling: Unl
Heat Index: 45°   Visibility: 10mi
Dew Point: 45°   Wind: 7mph
Humidity: 100%   Direction: 130°SE
Pressure: 30.17"   Gusts: NA
Location:  45.02°N, 123.88°W
Report Text: KTMK 230335Z AUTO 13006KT 10SM SCT039 07/07 A3017 RMK AO2
Loading
Personal Weather Stations






























Interactive Weather Map New forecast layout! Learn more

10-Day Weather Forecast

Advertisements
Track Severe Weather on mobile